Time;durP1;ratioP1;P1;durP2;ratioP2;P2;SDS_P1;SDS_P2;PMS_P1;PMS_P2;Temp;Humidity;BMP_temperature;BMP_pressure;BME280_temperature;BME280_humidity;BME280_pressure;Samples;Min_cycle;Max_cycle;Signal;HPM_P1;HPM_P2
2021/07/07 00:02:07;;;;;;;4.47;2.87;;;;;;;;;;5073179;28;20378;-49
2021/07/07 00:04:33;;;;;;;5.30;2.63;;;;;;;;;;5072667;28;20409;-49
2021/07/07 00:06:59;;;;;;;2.80;2.60;;;;;;;;;;5073040;28;20433;-49
2021/07/07 00:09:24;;;;;;;7.07;2.60;;;;;;;;;;5072809;28;20453;-50
2021/07/07 00:11:50;;;;;;;7.13;2.90;;;;;;;;;;5072890;28;20397;-49
2021/07/07 00:14:16;;;;;;;7.63;3.30;;;;;;;;;;5072855;28;20393;-50
2021/07/07 00:16:42;;;;;;;7.23;3.20;;;;;;;;;;5072648;28;20478;-50
2021/07/07 00:19:09;;;;;;;3.73;3.30;;;;;;;;;;5072718;28;20426;-50
2021/07/07 00:21:34;;;;;;;5.13;3.03;;;;;;;;;;5072516;28;20495;-50
2021/07/07 00:24:00;;;;;;;6.10;3.50;;;;;;;;;;5072418;28;20528;-49
2021/07/07 00:26:26;;;;;;;4.50;3.87;;;;;;;;;;5072305;28;20391;-49
2021/07/07 00:28:52;;;;;;;4.10;3.70;;;;;;;;;;5072377;28;20421;-49
2021/07/07 00:31:18;;;;;;;7.33;4.80;;;;;;;;;;5072646;28;20397;-49
2021/07/07 00:33:44;;;;;;;7.70;4.03;;;;;;;;;;5072225;28;20900;-49
2021/07/07 00:36:10;;;;;;;4.13;3.70;;;;;;;;;;5072186;28;20419;-49
2021/07/07 00:38:36;;;;;;;9.33;4.30;;;;;;;;;;5072767;28;20899;-50
2021/07/07 00:41:02;;;;;;;4.50;3.40;;;;;;;;;;5072184;28;20802;-49
2021/07/07 00:43:28;;;;;;;8.00;4.30;;;;;;;;;;5072288;28;20377;-49
2021/07/07 00:45:54;;;;;;;7.27;5.40;;;;;;;;;;5072224;28;20875;-49
2021/07/07 00:48:20;;;;;;;4.77;3.73;;;;;;;;;;5071957;28;20746;-48
2021/07/07 00:50:49;;;;;;;6.73;3.60;;;;;;;;;;5072296;28;20499;-49
2021/07/07 00:53:15;;;;;;;6.90;4.90;;;;;;;;;;5072005;28;20404;-49
2021/07/07 00:55:41;;;;;;;10.60;3.80;;;;;;;;;;5070564;28;20902;-50
2021/07/07 00:58:07;;;;;;;7.10;3.43;;;;;;;;;;5071741;28;20851;-50
2021/07/07 01:00:34;;;;;;;10.13;4.07;;;;;;;;;;5071635;28;20492;-49
2021/07/07 01:03:02;;;;;;;4.63;3.73;;;;;;;;;;5071228;28;20404;-49
2021/07/07 01:05:28;;;;;;;7.67;3.57;;;;;;;;;;5071307;28;20382;-49
2021/07/07 01:07:54;;;;;;;8.33;3.37;;;;;;;;;;5071690;28;20399;-49
2021/07/07 01:10:20;;;;;;;7.80;3.60;;;;;;;;;;5071828;28;20432;-49
2021/07/07 01:12:47;;;;;;;10.30;5.10;;;;;;;;;;5071607;28;20392;-49
2021/07/07 01:15:14;;;;;;;5.93;4.27;;;;;;;;;;5071718;28;20565;-50
2021/07/07 01:17:40;;;;;;;7.00;4.93;;;;;;;;;;5071421;28;20509;-49
2021/07/07 01:20:08;;;;;;;5.50;4.67;;;;;;;;;;5071650;28;20447;-49
2021/07/07 01:22:35;;;;;;;4.80;3.63;;;;;;;;;;5071465;28;20952;-49
2021/07/07 01:25:01;;;;;;;17.43;6.00;;;;;;;;;;5071308;28;20408;-49
2021/07/07 01:27:27;;;;;;;7.93;4.80;;;;;;;;;;5071459;28;20425;-49
2021/07/07 01:29:53;;;;;;;11.37;4.73;;;;;;;;;;5071353;28;20882;-49
2021/07/07 01:32:19;;;;;;;6.03;4.50;;;;;;;;;;5071442;28;20764;-49
2021/07/07 01:34:45;;;;;;;10.43;4.73;;;;;;;;;;5071100;28;21119;-49
2021/07/07 01:37:11;;;;;;;11.40;4.57;;;;;;;;;;5071296;28;20420;-49
2021/07/07 01:39:37;;;;;;;8.87;4.60;;;;;;;;;;5071108;28;20968;-49
2021/07/07 01:42:03;;;;;;;8.70;5.40;;;;;;;;;;5071276;28;20406;-49
2021/07/07 01:44:29;;;;;;;9.47;4.97;;;;;;;;;;5070864;28;20382;-49
2021/07/07 01:46:55;;;;;;;11.00;6.20;;;;;;;;;;5071154;28;20569;-49
2021/07/07 01:49:21;;;;;;;17.47;6.10;;;;;;;;;;5070917;28;20451;-49
2021/07/07 01:51:47;;;;;;;8.20;5.80;;;;;;;;;;5071758;28;20412;-49
2021/07/07 01:54:14;;;;;;;8.10;5.80;;;;;;;;;;5070613;28;20393;-49
2021/07/07 01:56:40;;;;;;;11.77;4.87;;;;;;;;;;5071229;28;20874;-49
2021/07/07 01:59:06;;;;;;;6.13;4.20;;;;;;;;;;5071149;28;20442;-49
2021/07/07 02:01:32;;;;;;;8.40;4.30;;;;;;;;;;5071383;28;20407;-49
2021/07/07 02:03:58;;;;;;;8.63;4.40;;;;;;;;;;5070814;28;20407;-49
2021/07/07 02:06:24;;;;;;;6.10;4.27;;;;;;;;;;5070546;28;20430;-49
2021/07/07 02:08:50;;;;;;;5.40;3.97;;;;;;;;;;5070625;28;20773;-49
2021/07/07 02:11:16;;;;;;;8.53;4.20;;;;;;;;;;5070829;28;20423;-49
2021/07/07 02:13:42;;;;;;;9.03;3.90;;;;;;;;;;5071097;28;20475;-49
2021/07/07 02:16:08;;;;;;;9.33;4.13;;;;;;;;;;5070429;28;21026;-49
2021/07/07 02:18:34;;;;;;;7.80;4.27;;;;;;;;;;5070878;28;20890;-49
2021/07/07 02:21:00;;;;;;;4.70;4.20;;;;;;;;;;5070691;28;20399;-48
2021/07/07 02:23:27;;;;;;;9.23;4.57;;;;;;;;;;5070549;28;20882;-49
2021/07/07 02:25:53;;;;;;;11.40;4.20;;;;;;;;;;5070191;28;20888;-49
2021/07/07 02:28:24;;;;;;;8.20;4.20;;;;;;;;;;5070829;28;20444;-51
2021/07/07 02:30:51;;;;;;;9.67;4.33;;;;;;;;;;5070500;28;20464;-49
2021/07/07 02:33:17;;;;;;;10.43;4.57;;;;;;;;;;5070521;28;20418;-49
2021/07/07 02:35:43;;;;;;;9.77;4.40;;;;;;;;;;5070060;28;20405;-49
2021/07/07 02:38:12;;;;;;;6.80;4.10;;;;;;;;;;5070452;28;20381;-49
2021/07/07 02:40:38;;;;;;;5.77;3.83;;;;;;;;;;5070344;28;20374;-50
2021/07/07 02:43:05;;;;;;;5.10;3.53;;;;;;;;;;5070441;28;20791;-49
2021/07/07 02:45:32;;;;;;;7.43;4.33;;;;;;;;;;5070120;28;20878;-49
2021/07/07 02:47:58;;;;;;;7.97;4.50;;;;;;;;;;5070311;28;20810;-49
2021/07/07 02:50:24;;;;;;;7.80;4.40;;;;;;;;;;5070144;28;20475;-49
2021/07/07 02:52:51;;;;;;;7.43;3.83;;;;;;;;;;5070333;28;20456;-49
2021/07/07 02:55:18;;;;;;;5.13;4.03;;;;;;;;;;5070075;28;20410;-49
2021/07/07 02:58:03;;;;;;;5.10;3.43;;;;;;;;;;5070087;28;20420;-49
2021/07/07 03:00:32;;;;;;;4.37;3.40;;;;;;;;;;5070378;28;20429;-49
2021/07/07 03:02:58;;;;;;;7.50;4.00;;;;;;;;;;5070052;28;21178;-49
2021/07/07 03:05:24;;;;;;;5.70;3.60;;;;;;;;;;5070213;28;20407;-49
2021/07/07 03:07:51;;;;;;;5.23;3.40;;;;;;;;;;5070092;28;20423;-49
2021/07/07 03:10:17;;;;;;;7.83;3.40;;;;;;;;;;5070287;28;20551;-49
2021/07/07 03:12:43;;;;;;;10.90;3.60;;;;;;;;;;5070057;28;20531;-49
2021/07/07 03:15:09;;;;;;;9.70;3.93;;;;;;;;;;5069997;28;20410;-49
2021/07/07 03:17:35;;;;;;;9.73;3.73;;;;;;;;;;5069948;28;20445;-49
2021/07/07 03:20:01;;;;;;;7.40;3.40;;;;;;;;;;5073906;28;20889;-49
2021/07/07 03:22:27;;;;;;;7.80;4.23;;;;;;;;;;5073672;28;20381;-49
2021/07/07 03:24:54;;;;;;;6.03;3.50;;;;;;;;;;5073509;28;20414;-49
2021/07/07 03:27:20;;;;;;;7.13;4.20;;;;;;;;;;5073653;28;20428;-48
2021/07/07 03:29:46;;;;;;;6.47;4.30;;;;;;;;;;5073534;28;20449;-49
2021/07/07 03:32:12;;;;;;;6.87;3.60;;;;;;;;;;5073472;28;20402;-49
2021/07/07 03:34:38;;;;;;;5.17;3.73;;;;;;;;;;5073517;28;20967;-49
2021/07/07 03:37:04;;;;;;;7.10;4.47;;;;;;;;;;5073381;28;20790;-48
2021/07/07 03:39:30;;;;;;;10.23;3.80;;;;;;;;;;5073890;28;20761;-49
2021/07/07 03:41:55;;;;;;;5.83;3.70;;;;;;;;;;5073705;28;20440;-49
2021/07/07 03:44:21;;;;;;;8.20;4.33;;;;;;;;;;5073641;28;20400;-51
2021/07/07 03:46:47;;;;;;;9.80;4.80;;;;;;;;;;5073802;28;20422;-48
2021/07/07 03:49:13;;;;;;;11.50;3.80;;;;;;;;;;5073485;28;20430;-49
2021/07/07 03:51:39;;;;;;;8.83;3.50;;;;;;;;;;5073628;28;20405;-50
2021/07/07 03:54:05;;;;;;;8.67;3.30;;;;;;;;;;5072970;28;20400;-50
2021/07/07 03:56:31;;;;;;;4.50;3.77;;;;;;;;;;5073209;28;20446;-51
2021/07/07 03:58:57;;;;;;;8.20;3.90;;;;;;;;;;5073003;28;20428;-51
2021/07/07 04:01:23;;;;;;;11.90;4.60;;;;;;;;;;5073119;28;21011;-49
2021/07/07 04:03:49;;;;;;;11.80;3.63;;;;;;;;;;5072826;28;20941;-49
2021/07/07 04:06:15;;;;;;;17.93;5.97;;;;;;;;;;5073136;28;20908;-49
2021/07/07 04:08:41;;;;;;;7.30;4.87;;;;;;;;;;5072820;28;20397;-49
2021/07/07 04:11:07;;;;;;;6.67;3.90;;;;;;;;;;5073021;28;20396;-49
2021/07/07 04:13:33;;;;;;;5.57;3.20;;;;;;;;;;5072755;28;20538;-49
2021/07/07 04:15:59;;;;;;;8.80;4.00;;;;;;;;;;5072541;28;20725;-49
2021/07/07 04:18:28;;;;;;;8.53;3.70;;;;;;;;;;5072749;28;20427;-49
2021/07/07 04:20:54;;;;;;;8.10;3.80;;;;;;;;;;5072824;28;20467;-50
2021/07/07 04:23:20;;;;;;;8.33;4.20;;;;;;;;;;5072591;28;20443;-51
2021/07/07 04:25:46;;;;;;;9.77;3.50;;;;;;;;;;5072383;28;20412;-49
2021/07/07 04:28:12;;;;;;;6.93;3.73;;;;;;;;;;5072685;28;20415;-51
2021/07/07 04:30:38;;;;;;;4.13;3.70;;;;;;;;;;5071921;28;20931;-49
2021/07/07 04:33:04;;;;;;;5.80;3.60;;;;;;;;;;5072735;28;20390;-49
2021/07/07 04:35:30;;;;;;;8.17;3.90;;;;;;;;;;5072048;28;20397;-49
2021/07/07 04:37:56;;;;;;;6.93;3.63;;;;;;;;;;5072552;28;20383;-49
2021/07/07 04:40:23;;;;;;;8.73;3.90;;;;;;;;;;5072220;28;20397;-49
2021/07/07 04:42:49;;;;;;;4.20;3.30;;;;;;;;;;5072691;28;20455;-49
2021/07/07 04:45:15;;;;;;;4.47;3.77;;;;;;;;;;5071722;28;20386;-48
2021/07/07 04:47:41;;;;;;;8.80;3.33;;;;;;;;;;5072086;28;20432;-51
2021/07/07 04:50:09;;;;;;;6.30;3.80;;;;;;;;;;5072123;28;20942;-49
2021/07/07 04:52:35;;;;;;;10.20;3.67;;;;;;;;;;5072214;28;20378;-50
2021/07/07 04:55:01;;;;;;;4.80;3.40;;;;;;;;;;5071621;28;20396;-49
2021/07/07 04:57:27;;;;;;;5.63;3.50;;;;;;;;;;5071937;28;20438;-48
2021/07/07 04:59:53;;;;;;;13.10;3.70;;;;;;;;;;5072103;28;20375;-49
2021/07/07 05:02:19;;;;;;;4.00;2.97;;;;;;;;;;5071931;28;20394;-49
2021/07/07 05:04:49;;;;;;;3.73;2.83;;;;;;;;;;5071415;28;20379;-49
2021/07/07 05:07:15;;;;;;;3.20;2.70;;;;;;;;;;5071807;28;20923;-48
2021/07/07 05:09:41;;;;;;;3.77;2.90;;;;;;;;;;5071870;28;20442;-49
2021/07/07 05:12:07;;;;;;;5.00;2.73;;;;;;;;;;5071560;28;20364;-50
2021/07/07 05:14:34;;;;;;;4.93;3.10;;;;;;;;;;5071410;28;20460;-49
2021/07/07 05:17:00;;;;;;;5.40;2.80;;;;;;;;;;5071349;28;20463;-49
2021/07/07 05:19:26;;;;;;;6.80;2.70;;;;;;;;;;5071748;28;20881;-49
2021/07/07 05:21:52;;;;;;;5.00;3.07;;;;;;;;;;5071492;28;20422;-49
2021/07/07 05:24:18;;;;;;;5.20;3.20;;;;;;;;;;5071857;28;20426;-50
2021/07/07 05:26:44;;;;;;;7.67;3.30;;;;;;;;;;5071152;28;20432;-50
2021/07/07 05:29:09;;;;;;;7.60;3.40;;;;;;;;;;5071384;28;20552;-50
2021/07/07 05:31:38;;;;;;;7.73;3.03;;;;;;;;;;5071262;28;20368;-50
2021/07/07 05:34:04;;;;;;;3.17;2.70;;;;;;;;;;5071138;28;20416;-50
2021/07/07 05:36:30;;;;;;;7.27;2.90;;;;;;;;;;5071089;28;20418;-50
2021/07/07 05:38:56;;;;;;;11.43;3.93;;;;;;;;;;5071232;28;20434;-49
2021/07/07 05:41:22;;;;;;;4.87;3.10;;;;;;;;;;5070338;28;20498;-50
2021/07/07 05:43:52;;;;;;;7.03;3.40;;;;;;;;;;5070928;28;20377;-49
2021/07/07 05:46:18;;;;;;;8.07;3.27;;;;;;;;;;5070897;28;20405;-49
2021/07/07 05:48:44;;;;;;;4.40;3.00;;;;;;;;;;5071325;28;20463;-49
2021/07/07 05:51:10;;;;;;;4.53;2.50;;;;;;;;;;5071231;28;20394;-49
2021/07/07 05:53:36;;;;;;;9.83;4.00;;;;;;;;;;5070982;28;20493;-49
2021/07/07 05:56:02;;;;;;;5.73;2.90;;;;;;;;;;5071069;28;20402;-49
2021/07/07 05:58:28;;;;;;;5.10;2.80;;;;;;;;;;5071081;28;20385;-49
2021/07/07 06:00:54;;;;;;;7.73;3.13;;;;;;;;;;5071189;28;20393;-50
2021/07/07 06:03:20;;;;;;;7.10;3.40;;;;;;;;;;5070914;28;20387;-50
2021/07/07 06:05:46;;;;;;;6.10;2.63;;;;;;;;;;5070576;28;20465;-49
2021/07/07 06:08:12;;;;;;;5.27;2.60;;;;;;;;;;5070689;28;20805;-50
2021/07/07 06:10:40;;;;;;;6.13;2.90;;;;;;;;;;5071034;28;20424;-50
2021/07/07 06:13:06;;;;;;;5.57;4.20;;;;;;;;;;5070704;28;20487;-50
2021/07/07 06:15:36;;;;;;;6.20;3.10;;;;;;;;;;5070447;28;20494;-49
2021/07/07 06:18:02;;;;;;;3.20;2.67;;;;;;;;;;5070330;28;20415;-49
2021/07/07 06:20:28;;;;;;;6.17;2.83;;;;;;;;;;5070676;28;20406;-50
2021/07/07 06:22:54;;;;;;;11.53;3.20;;;;;;;;;;5070491;28;20409;-50
2021/07/07 06:25:20;;;;;;;6.13;2.67;;;;;;;;;;5070305;28;20377;-50
2021/07/07 06:27:46;;;;;;;7.00;3.30;;;;;;;;;;5070512;28;20438;-49
2021/07/07 06:30:17;;;;;;;3.90;3.27;;;;;;;;;;5070546;28;20438;-50
2021/07/07 06:32:44;;;;;;;4.13;2.47;;;;;;;;;;5070286;28;20403;-50
2021/07/07 06:35:10;;;;;;;8.20;2.90;;;;;;;;;;5070258;28;20377;-50
2021/07/07 06:37:36;;;;;;;11.93;2.70;;;;;;;;;;5070264;28;20423;-50
2021/07/07 06:40:03;;;;;;;6.90;3.40;;;;;;;;;;5070724;28;20399;-50
2021/07/07 06:42:30;;;;;;;4.93;3.00;;;;;;;;;;5070553;28;20410;-50
2021/07/07 06:44:56;;;;;;;11.70;2.80;;;;;;;;;;5069975;28;20456;-50
2021/07/07 06:47:22;;;;;;;4.73;2.57;;;;;;;;;;5070350;28;20449;-52
2021/07/07 06:49:48;;;;;;;7.37;2.80;;;;;;;;;;5070056;28;20505;-50
2021/07/07 06:52:16;;;;;;;3.40;2.60;;;;;;;;;;5071426;28;20414;-50
2021/07/07 06:54:42;;;;;;;13.47;3.30;;;;;;;;;;5073935;28;20480;-50
2021/07/07 06:57:08;;;;;;;2.77;2.50;;;;;;;;;;5074206;28;20426;-51
2021/07/07 06:59:34;;;;;;;6.03;2.90;;;;;;;;;;5074047;28;20400;-50
2021/07/07 07:02:00;;;;;;;7.07;2.60;;;;;;;;;;5074254;28;20888;-51
2021/07/07 07:04:27;;;;;;;7.50;2.80;;;;;;;;;;5073743;28;20497;-50
2021/07/07 07:06:53;;;;;;;4.20;2.47;;;;;;;;;;5073552;28;20440;-50
2021/07/07 07:09:19;;;;;;;7.37;3.20;;;;;;;;;;5073335;28;20458;-51
2021/07/07 07:11:45;;;;;;;5.67;3.00;;;;;;;;;;5073448;28;20437;-50
2021/07/07 07:14:11;;;;;;;2.93;2.20;;;;;;;;;;5072854;28;20434;-50
2021/07/07 07:16:37;;;;;;;2.73;2.50;;;;;;;;;;5073209;28;21038;-50
2021/07/07 07:19:03;;;;;;;4.33;2.97;;;;;;;;;;5073440;28;20481;-50
2021/07/07 07:21:29;;;;;;;5.77;2.60;;;;;;;;;;5071587;28;20423;-50
2021/07/07 07:23:55;;;;;;;5.33;2.57;;;;;;;;;;5073256;28;20404;-50
2021/07/07 07:26:22;;;;;;;5.40;2.20;;;;;;;;;;5072926;28;20439;-51
2021/07/07 07:28:48;;;;;;;4.20;2.63;;;;;;;;;;5073315;28;20931;-50
2021/07/07 07:31:14;;;;;;;3.00;2.70;;;;;;;;;;5073205;28;20403;-51
2021/07/07 07:33:40;;;;;;;5.67;2.53;;;;;;;;;;5055706;28;20396;-51
2021/07/07 07:36:06;;;;;;;8.10;2.97;;;;;;;;;;5073021;28;20630;-51
2021/07/07 07:38:39;;;;;;;4.03;2.40;;;;;;;;;;5073438;28;20886;-51
2021/07/07 07:41:05;;;;;;;9.70;2.43;;;;;;;;;;5073255;28;20408;-50
2021/07/07 07:43:31;;;;;;;4.27;2.40;;;;;;;;;;5072815;28;20400;-51
2021/07/07 07:45:59;;;;;;;7.23;2.93;;;;;;;;;;5072518;28;20917;-50
2021/07/07 07:48:25;;;;;;;9.10;2.77;;;;;;;;;;5072498;28;20776;-51
2021/07/07 07:50:51;;;;;;;2.63;2.43;;;;;;;;;;5072618;28;20463;-50
2021/07/07 07:53:17;;;;;;;6.83;2.30;;;;;;;;;;5072862;28;20905;-50
2021/07/07 07:55:43;;;;;;;6.07;3.17;;;;;;;;;;5072692;28;20550;-51
2021/07/07 07:58:09;;;;;;;3.57;2.30;;;;;;;;;;5072735;28;20754;-51
2021/07/07 08:00:35;;;;;;;10.43;2.80;;;;;;;;;;5073190;28;20768;-51
2021/07/07 08:03:02;;;;;;;5.57;2.47;;;;;;;;;;5072836;28;20922;-51
2021/07/07 08:05:28;;;;;;;9.30;3.20;;;;;;;;;;5072346;28;20404;-51
2021/07/07 08:07:57;;;;;;;5.63;2.23;;;;;;;;;;5072747;28;20442;-50
2021/07/07 08:10:23;;;;;;;4.90;2.23;;;;;;;;;;5072785;28;20456;-50
2021/07/07 08:12:50;;;;;;;4.37;2.90;;;;;;;;;;5072667;28;20411;-50
2021/07/07 08:15:16;;;;;;;4.27;2.47;;;;;;;;;;5072578;28;20975;-50
2021/07/07 08:17:42;;;;;;;6.10;2.30;;;;;;;;;;5072873;28;20444;-51
2021/07/07 08:20:10;;;;;;;4.60;2.27;;;;;;;;;;5072709;28;20979;-50
2021/07/07 08:22:36;;;;;;;5.83;2.47;;;;;;;;;;5072890;28;20604;-51
2021/07/07 08:25:03;;;;;;;4.83;2.17;;;;;;;;;;5072056;28;20437;-52
2021/07/07 08:27:29;;;;;;;4.33;2.00;;;;;;;;;;5072565;28;20513;-52
2021/07/07 08:29:55;;;;;;;10.13;2.33;;;;;;;;;;5072339;28;20482;-52
2021/07/07 08:32:21;;;;;;;4.37;2.40;;;;;;;;;;5072955;28;20803;-51
2021/07/07 08:34:47;;;;;;;10.07;2.30;;;;;;;;;;5072051;28;20389;-52
2021/07/07 08:37:13;;;;;;;6.40;2.20;;;;;;;;;;5072344;28;20427;-52
2021/07/07 08:39:40;;;;;;;10.10;2.10;;;;;;;;;;5072435;28;20422;-53
2021/07/07 08:42:06;;;;;;;3.90;1.87;;;;;;;;;;5072365;28;20408;-52
2021/07/07 08:44:31;;;;;;;7.60;2.30;;;;;;;;;;5071855;28;20401;-52
2021/07/07 08:46:58;;;;;;;6.30;2.17;;;;;;;;;;5072118;28;20606;-52
2021/07/07 08:49:23;;;;;;;3.77;1.77;;;;;;;;;;5072220;28;20190;-53
2021/07/07 08:51:50;;;;;;;4.33;1.70;;;;;;;;;;5071904;28;20415;-52
2021/07/07 08:54:17;;;;;;;4.57;2.50;;;;;;;;;;5071780;28;20909;-52
2021/07/07 08:56:43;;;;;;;4.37;2.03;;;;;;;;;;5066125;28;20429;-53
2021/07/07 08:59:10;;;;;;;4.87;1.90;;;;;;;;;;5051684;28;20913;-53
2021/07/07 09:02:15;;;;;;;5.63;2.00;;;;;;;;;;5051759;28;20402;-53
2021/07/07 09:04:42;;;;;;;4.63;2.10;;;;;;;;;;4970314;28;20859;-53
2021/07/07 09:07:11;;;;;;;2.53;2.03;;;;;;;;;;4970372;28;20424;-53
2021/07/07 09:09:44;;;;;;;3.83;1.87;;;;;;;;;;5011075;28;20522;-53
2021/07/07 09:12:14;;;;;;;2.40;1.70;;;;;;;;;;5051758;28;20466;-53
2021/07/07 09:14:42;;;;;;;5.63;2.23;;;;;;;;;;5051496;28;20393;-52
2021/07/07 09:17:15;;;;;;;3.33;1.90;;;;;;;;;;5050564;28;20442;-53
2021/07/07 09:19:42;;;;;;;8.30;2.30;;;;;;;;;;5051556;28;20409;-53
2021/07/07 09:22:09;;;;;;;4.10;1.80;;;;;;;;;;5051264;28;20405;-54
2021/07/07 09:24:36;;;;;;;6.40;1.90;;;;;;;;;;5051502;28;20412;-52
2021/07/07 09:27:06;;;;;;;3.23;1.80;;;;;;;;;;5051364;28;21064;-53
2021/07/07 09:29:40;;;;;;;2.27;2.07;;;;;;;;;;5050868;28;20532;-53
2021/07/07 09:32:12;;;;;;;4.40;2.07;;;;;;;;;;5051296;28;20393;-52
2021/07/07 09:34:39;;;;;;;3.37;2.00;;;;;;;;;;5050787;28;20536;-52
2021/07/07 09:37:07;;;;;;;14.63;2.13;;;;;;;;;;5051140;28;20424;-53
2021/07/07 09:39:33;;;;;;;5.27;1.87;;;;;;;;;;5051018;28;20405;-53
2021/07/07 09:41:59;;;;;;;5.73;2.13;;;;;;;;;;5051205;28;20404;-52
2021/07/07 09:44:29;;;;;;;3.67;1.53;;;;;;;;;;5050799;28;20417;-52
2021/07/07 09:46:55;;;;;;;6.50;2.30;;;;;;;;;;5051136;28;20409;-52
2021/07/07 09:49:23;;;;;;;5.97;2.40;;;;;;;;;;5050757;28;20801;-51
2021/07/07 09:51:50;;;;;;;2.87;1.90;;;;;;;;;;5051234;28;20492;-52
2021/07/07 09:54:16;;;;;;;6.30;2.00;;;;;;;;;;5050871;28;20978;-51
2021/07/07 09:56:42;;;;;;;3.73;2.00;;;;;;;;;;5050680;28;20421;-52
2021/07/07 09:59:08;;;;;;;3.53;1.83;;;;;;;;;;5050815;28;20397;-52
2021/07/07 10:01:33;;;;;;;3.10;1.77;;;;;;;;;;5050599;28;20405;-52
2021/07/07 10:04:01;;;;;;;3.77;1.67;;;;;;;;;;5050439;28;20401;-52
2021/07/07 10:06:27;;;;;;;3.53;1.50;;;;;;;;;;5050548;28;21012;-52
2021/07/07 10:08:53;;;;;;;5.53;2.13;;;;;;;;;;5050695;28;20492;-53
2021/07/07 10:11:20;;;;;;;5.43;1.80;;;;;;;;;;5050475;28;20447;-52
2021/07/07 10:13:46;;;;;;;8.77;2.10;;;;;;;;;;5050449;28;20401;-52
2021/07/07 10:16:15;;;;;;;4.77;2.10;;;;;;;;;;5050283;28;20817;-52
2021/07/07 10:18:41;;;;;;;5.03;1.60;;;;;;;;;;5050842;28;20402;-52
2021/07/07 10:21:07;;;;;;;3.97;2.20;;;;;;;;;;5050544;28;20405;-52
2021/07/07 10:23:38;;;;;;;3.53;1.70;;;;;;;;;;5050729;28;20440;-52
2021/07/07 10:26:04;;;;;;;6.90;2.30;;;;;;;;;;5050393;28;20505;-52
2021/07/07 10:28:31;;;;;;;6.30;3.80;;;;;;;;;;5050013;28;20882;-52
2021/07/07 10:30:58;;;;;;;8.40;2.60;;;;;;;;;;5050350;28;20453;-51
2021/07/07 10:33:25;;;;;;;4.23;2.10;;;;;;;;;;5050318;28;20894;-52
2021/07/07 10:36:11;;;;;;;5.37;2.70;;;;;;;;;;5050288;28;20404;-52
2021/07/07 10:38:37;;;;;;;5.50;2.30;;;;;;;;;;5050171;28;20401;-51
2021/07/07 10:41:03;;;;;;;7.23;2.10;;;;;;;;;;5050291;28;20455;-52
2021/07/07 10:43:45;;;;;;;4.23;2.23;;;;;;;;;;5050124;28;20401;-51
2021/07/07 10:46:34;;;;;;;7.80;2.00;;;;;;;;;;5050443;28;20424;-52
2021/07/07 10:49:18;;;;;;;4.60;2.07;;;;;;;;;;5049958;28;20895;-53
2021/07/07 10:51:45;;;;;;;6.33;2.40;;;;;;;;;;5050115;28;20408;-53
2021/07/07 10:54:21;;;;;;;4.40;1.70;;;;;;;;;;5049881;28;20401;-53
2021/07/07 10:56:47;;;;;;;6.77;2.50;;;;;;;;;;5050145;28;20428;-53
2021/07/07 10:59:32;;;;;;;4.63;2.20;;;;;;;;;;5050172;28;20405;-53
2021/07/07 11:02:08;;;;;;;5.47;2.50;;;;;;;;;;5050236;28;20404;-53
2021/07/07 11:04:34;;;;;;;2.83;1.80;;;;;;;;;;5049732;28;20934;-52
2021/07/07 11:07:19;;;;;;;3.37;1.87;;;;;;;;;;5050444;28;20440;-52
2021/07/07 11:09:45;;;;;;;3.90;2.00;;;;;;;;;;5049962;28;20614;-52
2021/07/07 11:12:11;;;;;;;6.33;1.97;;;;;;;;;;5048774;28;20958;-52
2021/07/07 11:14:37;;;;;;;6.80;2.10;;;;;;;;;;5049647;28;20775;-52
2021/07/07 11:17:04;;;;;;;3.53;2.30;;;;;;;;;;5049772;28;20440;-52
2021/07/07 11:19:36;;;;;;;4.70;1.87;;;;;;;;;;5049818;28;20405;-52
2021/07/07 11:22:02;;;;;;;5.07;2.20;;;;;;;;;;5049912;28;20435;-52
2021/07/07 11:24:28;;;;;;;3.57;2.30;;;;;;;;;;5050317;28;20482;-50
2021/07/07 11:26:57;;;;;;;3.13;2.20;;;;;;;;;;5049708;28;20428;-50
2021/07/07 11:29:23;;;;;;;3.43;2.20;;;;;;;;;;5049728;28;20921;-49
2021/07/07 11:31:49;;;;;;;6.20;2.70;;;;;;;;;;5049883;28;20965;-50
2021/07/07 11:34:15;;;;;;;5.27;2.37;;;;;;;;;;5049809;28;20432;-50
2021/07/07 11:36:41;;;;;;;5.53;2.37;;;;;;;;;;5049869;28;20432;-50
2021/07/07 11:39:08;;;;;;;8.20;2.60;;;;;;;;;;5051046;28;20413;-50
2021/07/07 11:41:34;;;;;;;3.43;2.47;;;;;;;;;;5054019;28;20764;-50
2021/07/07 11:44:00;;;;;;;5.50;2.57;;;;;;;;;;5053298;28;20887;-53
2021/07/07 11:46:31;;;;;;;3.73;2.23;;;;;;;;;;5053223;28;20452;-53
2021/07/07 11:49:08;;;;;;;8.90;2.70;;;;;;;;;;5053349;28;20436;-50
2021/07/07 11:51:37;;;;;;;8.30;2.87;;;;;;;;;;5053274;28;20411;-50
2021/07/07 11:54:03;;;;;;;4.43;2.70;;;;;;;;;;5052921;28;20397;-50
2021/07/07 11:56:30;;;;;;;4.17;2.80;;;;;;;;;;5053015;28;20424;-50
2021/07/07 11:59:02;;;;;;;3.90;2.80;;;;;;;;;;5052975;28;20400;-50
2021/07/07 12:01:29;;;;;;;6.07;2.50;;;;;;;;;;5053060;28;20404;-50
2021/07/07 12:04:02;;;;;;;4.10;2.60;;;;;;;;;;5052929;28;20855;-51
2021/07/07 12:06:48;;;;;;;4.83;2.63;;;;;;;;;;5052865;28;20428;-50
2021/07/07 12:09:23;;;;;;;4.10;3.40;;;;;;;;;;5052832;28;20480;-50
2021/07/07 12:11:52;;;;;;;3.93;2.27;;;;;;;;;;5052897;28;20440;-52
2021/07/07 12:14:18;;;;;;;11.30;3.13;;;;;;;;;;5052512;28;20437;-51
2021/07/07 12:16:45;;;;;;;3.70;2.00;;;;;;;;;;5052489;28;20491;-52
2021/07/07 12:19:13;;;;;;;9.30;2.00;;;;;;;;;;5051627;28;20392;-51
2021/07/07 12:21:49;;;;;;;4.63;2.10;;;;;;;;;;5034653;28;20447;-50
2021/07/07 12:24:20;;;;;;;7.23;2.10;;;;;;;;;;5064453;28;20507;-53
2021/07/07 12:26:47;;;;;;;4.97;1.80;;;;;;;;;;5078389;28;20435;-51
2021/07/07 12:29:18;;;;;;;5.47;1.93;;;;;;;;;;5080159;28;20452;-51
2021/07/07 12:31:45;;;;;;;8.37;2.30;;;;;;;;;;5074911;28;20389;-52
2021/07/07 12:34:12;;;;;;;2.17;1.80;;;;;;;;;;5072232;28;20775;-51
2021/07/07 12:36:39;;;;;;;2.40;1.87;;;;;;;;;;5072513;28;20416;-51
2021/07/07 12:39:13;;;;;;;2.53;2.00;;;;;;;;;;5072540;28;20389;-51
2021/07/07 12:41:41;;;;;;;4.27;2.23;;;;;;;;;;5072307;28;20403;-51
2021/07/07 12:44:09;;;;;;;4.53;1.70;;;;;;;;;;5072222;28;20397;-53
2021/07/07 12:46:51;;;;;;;6.03;2.50;;;;;;;;;;5072019;28;20534;-52
2021/07/07 12:49:23;;;;;;;3.00;1.63;;;;;;;;;;5072307;28;20440;-53
2021/07/07 12:51:52;;;;;;;2.33;1.67;;;;;;;;;;5072370;28;20424;-51
2021/07/07 12:54:20;;;;;;;3.10;1.70;;;;;;;;;;5072166;28;20483;-51
2021/07/07 12:56:56;;;;;;;2.57;1.80;;;;;;;;;;5071917;28;20417;-51
2021/07/07 12:59:22;;;;;;;4.33;1.80;;;;;;;;;;5072137;28;20491;-52
2021/07/07 13:01:58;;;;;;;5.00;2.17;;;;;;;;;;5072298;28;20413;-52
2021/07/07 13:04:24;;;;;;;2.70;2.30;;;;;;;;;;5071796;28;20426;-52
2021/07/07 13:07:09;;;;;;;3.10;2.03;;;;;;;;;;5072012;28;20450;-53
2021/07/07 13:09:36;;;;;;;3.13;2.07;;;;;;;;;;5072339;28;20463;-51
2021/07/07 13:12:04;;;;;;;3.17;2.10;;;;;;;;;;5071958;28;20830;-51
2021/07/07 13:14:30;;;;;;;2.47;1.70;;;;;;;;;;5072099;28;20894;-54
2021/07/07 13:16:56;;;;;;;8.53;2.13;;;;;;;;;;5072336;28;20437;-53
2021/07/07 13:19:26;;;;;;;2.50;1.67;;;;;;;;;;5071898;28;20404;-53
2021/07/07 13:21:59;;;;;;;3.77;1.90;;;;;;;;;;5071784;28;20397;-51
2021/07/07 13:24:26;;;;;;;2.30;1.70;;;;;;;;;;5071318;28;20410;-51
2021/07/07 13:26:52;;;;;;;4.27;1.80;;;;;;;;;;5071708;28;20512;-50
2021/07/07 13:29:23;;;;;;;7.83;2.30;;;;;;;;;;5071328;28;20448;-51
2021/07/07 13:32:08;;;;;;;4.43;2.03;;;;;;;;;;5072177;28;20901;-51
2021/07/07 13:34:35;;;;;;;4.37;1.90;;;;;;;;;;5070927;28;20400;-51
2021/07/07 13:37:08;;;;;;;9.00;2.10;;;;;;;;;;5071518;28;20424;-51
2021/07/07 13:39:34;;;;;;;4.53;2.10;;;;;;;;;;5071687;28;20454;-51
2021/07/07 13:42:00;;;;;;;6.03;2.30;;;;;;;;;;5071513;28;20400;-51
2021/07/07 13:44:26;;;;;;;3.80;1.80;;;;;;;;;;5071660;28;20432;-51
2021/07/07 13:46:52;;;;;;;5.67;2.00;;;;;;;;;;5070744;28;20466;-51
2021/07/07 13:49:18;;;;;;;2.60;1.90;;;;;;;;;;5071098;28;20471;-51
2021/07/07 13:51:44;;;;;;;3.60;2.17;;;;;;;;;;5071002;28;20420;-50
2021/07/07 13:54:10;;;;;;;3.37;2.17;;;;;;;;;;5070939;28;20396;-50
2021/07/07 13:56:36;;;;;;;4.53;2.47;;;;;;;;;;5070826;28;20419;-52
2021/07/07 13:59:02;;;;;;;3.40;2.30;;;;;;;;;;5071099;28;20393;-52
2021/07/07 14:01:28;;;;;;;2.73;2.30;;;;;;;;;;5070309;28;20905;-50
2021/07/07 14:03:54;;;;;;;7.07;3.30;;;;;;;;;;5070887;28;20779;-52
2021/07/07 14:06:20;;;;;;;3.63;2.10;;;;;;;;;;5070902;28;21023;-50
2021/07/07 14:08:46;;;;;;;2.23;1.83;;;;;;;;;;5071241;28;20484;-50
2021/07/07 14:11:12;;;;;;;11.03;2.57;;;;;;;;;;5070869;28;20539;-50
2021/07/07 14:13:38;;;;;;;7.53;2.63;;;;;;;;;;5070613;28;20392;-50
2021/07/07 14:16:04;;;;;;;2.80;2.40;;;;;;;;;;5070351;28;20426;-50
2021/07/07 14:18:30;;;;;;;2.63;2.10;;;;;;;;;;5070644;28;20904;-50
2021/07/07 14:20:56;;;;;;;5.10;2.00;;;;;;;;;;5070989;28;20484;-50
2021/07/07 14:23:22;;;;;;;3.27;2.40;;;;;;;;;;5070642;28;20440;-50
2021/07/07 14:25:48;;;;;;;5.40;2.20;;;;;;;;;;5070796;28;20838;-50
2021/07/07 14:28:14;;;;;;;2.53;1.90;;;;;;;;;;5070526;28;20878;-50
2021/07/07 14:30:40;;;;;;;3.50;2.10;;;;;;;;;;5070304;28;20488;-51
2021/07/07 14:33:06;;;;;;;5.57;2.37;;;;;;;;;;5070942;28;20393;-51
2021/07/07 14:35:32;;;;;;;2.13;1.93;;;;;;;;;;5070453;28;20423;-51
2021/07/07 14:37:58;;;;;;;2.13;1.90;;;;;;;;;;5070951;28;20937;-51
2021/07/07 14:40:24;;;;;;;3.40;2.30;;;;;;;;;;5070646;28;20428;-51
2021/07/07 14:42:50;;;;;;;3.20;2.03;;;;;;;;;;5070972;28;20404;-51